• Join FlightAware (Why Join?)
  • Login
  • US Flag 
02:39PM EST


 

Airport Tracker/Info


-or-


 

Live Flight TrackerFlight Track Log ✈ WBR2634 ✈ 19-Sep-2013 ✈ KBRL - KORD

Flight Track Log - Related Links

Times and Time Zones

All times are in EDT time to prevent confusion due to time zone crossing. See the WBR2634 flight status page for this flight to view local times or setup timezone preferences in your user account.

Time Position Orientation Groundspeed Altitude Reporting Facility
EDT Latitude Longitude Course Direction KTS MPH feet Rate Location/Type
05:45PM 40.7656 -91.0664 71° East 137 158 2,200  Level Chicago Center
05:46PM 40.7775 -91.0211 71° East 133 153 3,000 720 Climbing Chicago Center
05:47PM 40.7936 -90.9642 69° East 135 155 3,800 720 Climbing Chicago Center
05:48PM 40.8089 -90.9175 67° East 138 159 4,500 660 Climbing Chicago Center
05:49PM 40.8222 -90.8703 70° East 137 158 5,200 540 Climbing Chicago Center
05:50PM 40.8344 -90.8211 72° East 140 161 5,700 540 Climbing Chicago Center
05:51PM 40.8492 -90.7694 69° East 147 169 6,400 600 Climbing Chicago Center
05:52PM 40.8619 -90.7161 72° East 152 175 7,000 660 Climbing Chicago Center
05:53PM 40.8764 -90.6517 73° East 152 175 7,800 600 Climbing Chicago Center
05:54PM 40.8933 -90.5981 67° East 157 181 8,300 480 Climbing Chicago Center
05:55PM 40.9106 -90.5408 68° East 163 188 8,800 360 Climbing Chicago Center
05:56PM 40.9267 -90.4811 70° East 169 194 9,100 60 Climbing Chicago Center
05:57PM 40.9425 -90.4197 71° East 175 201 9,000 -60 Descending Chicago Center
05:58PM 40.9614 -90.3583 68° East 178 205 9,000  Level Chicago Center
05:59PM 40.9817 -90.2853 70° East 175 201 9,000  Level Chicago Center
06:00PM 40.9983 -90.2256 70° East 173 199 9,000  Level Chicago Center
06:01PM 41.0175 -90.1656 67° East 176 203 9,000  Level Chicago Center
06:02PM 41.0322 -90.1058 72° East 172 198 9,000 -60 Level Chicago Center
06:03PM 41.0481 -90.0453 71° East 173 199 8,900 -60 Descending Chicago Center
06:04PM 41.0647 -89.9853 70° East 173 199 8,900  Level Chicago Center
06:05PM 41.0806 -89.9258 71° East 171 197 9,000 60 Climbing Chicago Center
06:06PM 41.1039 -89.8558 66° East 172 198 9,100  Climbing Chicago Center
06:07PM 41.1294 -89.7997 59° Northeast 175 201 9,000 -60 Descending Chicago Center
06:09PM 41.1528 -89.7428 61° Northeast 176 203 9,000  Level Chicago Center
06:10PM 41.1769 -89.6872 60° Northeast 175 201 9,000  Level Chicago Center
06:11PM 41.1983 -89.6289 64° Northeast 175 201 9,100  Climbing Chicago Center
06:12PM 41.2225 -89.5736 60° Northeast 174 200 9,000 -60 Descending Chicago Center
06:13PM 41.2539 -89.5092 57° Northeast 174 200 9,000  Level Chicago Center
06:14PM 41.2889 -89.4644 44° Northeast 174 200 9,000  Level Chicago Center
06:15PM 41.3236 -89.4189 45° Northeast 175 201 9,000  Level Chicago Center
06:16PM 41.3578 -89.3736 45° Northeast 174 200 9,000  Level Chicago Center
06:17PM 41.3892 -89.3253 49° Northeast 172 198 9,000  Level Chicago Center
06:18PM 41.4078 -89.2667 67° East 171 197 9,000  Level Chicago Center
06:19PM 41.4294 -89.1975 67° East 169 194 9,100  Climbing Chicago Center
06:20PM 41.4478 -89.1369 68° East 174 200 9,000 -60 Descending Chicago Center
06:21PM 41.4683 -89.0775 65° Northeast 177 204 9,000  Level Chicago Center
06:22PM 41.4864 -89.0175 68° East 175 201 9,100  Climbing Chicago Center
06:23PM 41.5050 -88.9569 68° East 177 204 9,000 -240 Descending Chicago Center
06:24PM 41.5244 -88.8978 66° East 176 203 8,700 -540 Descending Chicago Center
06:25PM 41.5461 -88.8264 68° East 175 201 8,000 -360 Descending Chicago Center
06:26PM 41.5683 -88.7669 63° Northeast 177 204 8,000  Level Chicago Center
06:27PM 41.5892 -88.7081 65° Northeast 177 204 8,000  Level Chicago Center
06:28PM 41.6097 -88.6503 65° Northeast 174 200 8,000  Level Chicago Center
06:29PM 41.6303 -88.5906 65° Northeast 177 204 8,000  Level Chicago Center
06:30PM 41.6600 -88.5242 59° Northeast 174 200 8,100 -120 Climbing Chicago Center
06:31PM 41.6828 -88.4661 62° Northeast 175 201 7,800 -360 Descending Chicago Center
06:32PM 41.7069 -88.4069 61° Northeast 181 208 7,400 -420 Descending Chicago Center
06:33PM 41.7536 -88.3803 23° Northeast 181 208 7,000 -180 Descending Chicago Center
06:34PM 41.8014 -88.3614 16° North 179 206 7,100 -300 Climbing Chicago Center
06:35PM 41.8603 -88.3417 14° North 182 209 6,400 -780 Descending Chicago Center
06:36PM 41.9125 -88.3408 North 187 215 5,600 -660 Descending Chicago Center
06:37PM 41.9619 -88.3311 North 187 215 5,100 -540 Descending Chicago Center
06:39PM 41.9678 -88.2539 84° East 192 221 4,500 -480 Descending Chicago Center
06:40PM 41.9667 -88.1844 91° East 187 215 4,200 -480 Descending Chicago Center
06:41PM 41.9689 -88.1144 88° East 186 214 3,500 -1,020 Descending Chicago Center
06:42PM 41.9667 -88.0333 92° East 172 198 2,200 -1,080 Descending Chicago TRACON
06:43PM 41.9667 -87.9833 90° East 138 159 1,400 -720 Descending Chicago TRACON
06:44PM 41.9667 -87.9333 90° East 115 132 800 -600 Descending Chicago TRACON